createdAt,value
2022-09-06T00:00:49.724Z,3.37
2022-09-06T00:01:52.014Z,5.00
2022-09-06T00:02:54.649Z,3.47
2022-09-06T00:03:57.482Z,4.13
2022-09-06T00:04:59.190Z,4.20
2022-09-06T00:06:07.298Z,3.80
2022-09-06T00:07:08.957Z,4.37
2022-09-06T00:08:11.521Z,4.33
2022-09-06T00:09:13.144Z,5.30
2022-09-06T00:10:16.172Z,5.23
2022-09-06T00:11:18.601Z,5.13
2022-09-06T00:12:22.817Z,4.80
2022-09-06T00:13:24.496Z,7.80
2022-09-06T00:14:27.089Z,7.07
2022-09-06T00:15:28.908Z,9.50
2022-09-06T00:16:31.619Z,11.93
2022-09-06T00:17:33.785Z,16.37
2022-09-06T00:18:36.383Z,9.63
2022-09-06T00:19:38.151Z,6.63
2022-09-06T00:20:41.971Z,7.40
2022-09-06T00:21:43.556Z,8.47
2022-09-06T00:22:46.116Z,4.50
2022-09-06T00:23:47.981Z,8.30
2022-09-06T00:24:50.520Z,6.77
2022-09-06T00:25:52.215Z,5.40
2022-09-06T00:26:54.791Z,5.73
2022-09-06T00:28:00.455Z,5.87
2022-09-06T00:29:03.050Z,4.13
2022-09-06T00:30:05.678Z,9.53
2022-09-06T00:31:12.850Z,6.60
2022-09-06T00:32:14.533Z,10.60
2022-09-06T00:33:17.213Z,7.10
2022-09-06T00:34:18.858Z,8.53
2022-09-06T00:35:24.613Z,7.27
2022-09-06T00:36:26.423Z,4.80
2022-09-06T00:37:28.990Z,4.70
2022-09-06T00:38:30.930Z,8.97
2022-09-06T00:39:33.572Z,6.23
2022-09-06T00:40:35.714Z,6.50
2022-09-06T00:41:38.618Z,6.37
2022-09-06T00:42:40.492Z,7.70
2022-09-06T00:43:44.830Z,8.13
2022-09-06T00:44:48.129Z,3.27
2022-09-06T00:45:50.979Z,5.60
2022-09-06T00:46:54.657Z,4.50
2022-09-06T00:47:58.712Z,12.40
2022-09-06T00:49:05.097Z,4.70
2022-09-06T00:50:10.091Z,3.77
2022-09-06T00:51:14.185Z,4.63
2022-09-06T00:52:19.505Z,9.27
2022-09-06T00:53:21.803Z,3.83
2022-09-06T00:54:24.673Z,6.20
2022-09-06T00:55:26.585Z,7.53
2022-09-06T00:56:31.428Z,4.20
2022-09-06T00:57:33.169Z,5.67
2022-09-06T00:58:36.578Z,8.30
2022-09-06T00:59:40.340Z,7.33
2022-09-06T01:00:44.796Z,3.87
2022-09-06T01:01:46.424Z,6.60
2022-09-06T01:02:49.813Z,6.17
2022-09-06T01:03:51.962Z,6.23
2022-09-06T01:04:55.791Z,15.70
2022-09-06T01:06:06.441Z,9.60
2022-09-06T01:07:19.440Z,11.53
2022-09-06T01:08:32.744Z,11.70
2022-09-06T01:09:48.351Z,7.43
2022-09-06T01:11:01.355Z,13.50
2022-09-06T01:12:21.904Z,10.70
2022-09-06T01:13:35.386Z,13.97
2022-09-06T01:15:00.440Z,7.00
2022-09-06T01:16:11.660Z,5.03
2022-09-06T01:17:23.601Z,13.70
2022-09-06T01:18:40.577Z,14.47
2022-09-06T01:20:20.946Z,11.43
2022-09-06T01:21:37.276Z,5.63
2022-09-06T01:23:05.906Z,9.60
2022-09-06T01:24:42.400Z,11.03
2022-09-06T01:25:59.898Z,17.27
2022-09-06T01:27:38.518Z,8.03
2022-09-06T01:28:42.705Z,9.27
2022-09-06T01:29:48.917Z,9.43
2022-09-06T01:30:54.699Z,11.23
2022-09-06T01:32:05.764Z,11.90
2022-09-06T01:33:14.187Z,13.87
2022-09-06T01:34:23.135Z,6.47
2022-09-06T01:35:33.828Z,11.13
2022-09-06T01:37:06.193Z,8.97
2022-09-06T01:38:08.242Z,8.77
2022-09-06T01:39:17.787Z,7.37
2022-09-06T01:40:20.869Z,9.93
2022-09-06T01:41:22.473Z,8.87
2022-09-06T01:42:28.343Z,7.20
2022-09-06T01:43:35.002Z,15.00
2022-09-06T01:44:40.383Z,9.23
2022-09-06T01:45:52.089Z,6.77
2022-09-06T01:47:01.816Z,9.20
2022-09-06T01:48:11.288Z,7.63
2022-09-06T01:49:29.921Z,7.80
2022-09-06T01:50:46.113Z,7.37
2022-09-06T01:52:03.671Z,7.77
2022-09-06T01:53:17.502Z,8.67
2022-09-06T01:54:35.107Z,5.83
2022-09-06T01:55:49.794Z,8.53
2022-09-06T01:57:04.318Z,6.20
2022-09-06T01:58:18.494Z,11.73
2022-09-06T01:59:39.799Z,6.03
2022-09-06T02:00:52.790Z,6.70
2022-09-06T02:02:03.616Z,9.67
2022-09-06T02:03:13.059Z,8.63
2022-09-06T02:04:21.775Z,9.43
2022-09-06T02:05:31.753Z,8.00
2022-09-06T02:06:38.280Z,6.70
2022-09-06T02:07:43.765Z,8.10
2022-09-06T02:08:50.647Z,7.80
2022-09-06T02:09:57.568Z,5.40
2022-09-06T02:11:02.764Z,8.07
2022-09-06T02:12:06.870Z,12.40
2022-09-06T02:13:10.774Z,10.00
2022-09-06T02:14:19.000Z,5.80
2022-09-06T02:15:26.556Z,7.20
2022-09-06T02:16:31.108Z,8.07
2022-09-06T02:17:35.625Z,5.97
2022-09-06T02:18:43.743Z,5.33
2022-09-06T02:19:50.215Z,5.83
2022-09-06T02:20:56.859Z,6.17
2022-09-06T02:21:59.347Z,4.90
2022-09-06T02:23:05.137Z,7.30
2022-09-06T02:24:11.980Z,6.77
2022-09-06T02:25:19.745Z,6.77
2022-09-06T02:26:25.438Z,6.90
2022-09-06T02:27:31.028Z,6.20
2022-09-06T02:28:33.191Z,4.80
2022-09-06T02:29:36.545Z,6.60
2022-09-06T02:30:43.068Z,6.57
2022-09-06T02:31:49.084Z,5.67
2022-09-06T02:32:58.000Z,4.97
2022-09-06T02:34:01.248Z,5.90
2022-09-06T02:35:09.241Z,6.30
2022-09-06T02:36:11.837Z,5.90
2022-09-06T02:37:15.139Z,7.00
2022-09-06T02:38:18.658Z,5.23
2022-09-06T02:39:20.247Z,4.93
2022-09-06T02:40:23.534Z,9.37
2022-09-06T02:41:25.757Z,9.37
2022-09-06T02:42:28.285Z,6.83
2022-09-06T02:43:30.010Z,5.40
2022-09-06T02:44:32.652Z,11.30
2022-09-06T02:45:34.411Z,9.97
2022-09-06T02:46:38.459Z,8.13
2022-09-06T02:47:40.125Z,6.30
2022-09-06T02:48:42.691Z,8.20
2022-09-06T02:49:44.442Z,8.20
2022-09-06T02:50:47.095Z,4.67
2022-09-06T02:51:48.734Z,5.83
2022-09-06T02:53:02.315Z,7.83
2022-09-06T02:54:04.521Z,7.23
2022-09-06T02:55:08.538Z,8.03
2022-09-06T02:56:10.561Z,6.57
2022-09-06T02:57:14.107Z,6.53
2022-09-06T02:58:16.298Z,5.60
2022-09-06T02:59:18.904Z,6.93
2022-09-06T03:00:20.563Z,6.10
2022-09-06T03:01:23.270Z,9.43
2022-09-06T03:02:26.332Z,9.73
2022-09-06T03:03:29.431Z,5.53
2022-09-06T03:04:31.563Z,6.10
2022-09-06T03:05:34.733Z,13.80
2022-09-06T03:06:36.360Z,5.37
2022-09-06T03:07:39.055Z,6.90
2022-09-06T03:08:40.648Z,8.07
2022-09-06T03:09:43.323Z,9.83
2022-09-06T03:10:49.264Z,7.90
2022-09-06T03:11:52.079Z,6.60
2022-09-06T03:12:53.761Z,9.13
2022-09-06T03:13:56.477Z,6.57
2022-09-06T03:14:58.124Z,6.43
2022-09-06T03:16:01.409Z,6.73
2022-09-06T03:17:03.677Z,7.83
2022-09-06T03:18:07.751Z,6.17
2022-09-06T03:19:09.331Z,5.93
2022-09-06T03:20:13.068Z,5.73
2022-09-06T03:21:15.595Z,9.00
2022-09-06T03:22:18.348Z,11.77
2022-09-06T03:23:21.205Z,4.80
2022-09-06T03:24:23.736Z,9.73
2022-09-06T03:25:26.130Z,5.43
2022-09-06T03:26:30.474Z,6.30
2022-09-06T03:27:32.446Z,5.47
2022-09-06T03:28:35.421Z,6.10
2022-09-06T03:29:37.107Z,11.87
2022-09-06T03:30:40.114Z,8.67
2022-09-06T03:31:41.780Z,6.50
2022-09-06T03:32:45.059Z,8.00
2022-09-06T03:33:48.090Z,7.20
2022-09-06T03:34:50.878Z,5.80
2022-09-06T03:35:54.519Z,5.93
2022-09-06T03:36:57.387Z,8.70
2022-09-06T03:38:00.232Z,4.90
2022-09-06T03:39:02.777Z,6.77
2022-09-06T03:40:05.221Z,9.40
2022-09-06T03:41:07.901Z,8.43
2022-09-06T03:42:09.777Z,6.10
2022-09-06T03:43:12.359Z,7.83
2022-09-06T03:44:14.058Z,9.40
2022-09-06T03:45:16.739Z,10.00
2022-09-06T03:46:18.338Z,7.27
2022-09-06T03:47:21.111Z,10.60
2022-09-06T03:48:24.497Z,8.40
2022-09-06T03:49:28.514Z,8.00
2022-09-06T03:50:30.083Z,7.90
2022-09-06T03:51:32.662Z,8.07
2022-09-06T03:52:34.266Z,9.00
2022-09-06T03:53:36.841Z,9.87
2022-09-06T03:54:38.417Z,10.50
2022-09-06T03:55:41.195Z,12.13
2022-09-06T03:56:42.870Z,10.13
2022-09-06T03:57:45.463Z,9.17
2022-09-06T03:58:47.336Z,11.37
2022-09-06T03:59:50.001Z,7.23
2022-09-06T04:01:00.527Z,12.03
2022-09-06T04:02:04.225Z,8.17
2022-09-06T04:03:05.887Z,9.60
2022-09-06T04:04:08.470Z,10.73
2022-09-06T04:05:13.284Z,10.53
2022-09-06T04:06:15.829Z,10.10
2022-09-06T04:07:17.523Z,9.03
2022-09-06T04:08:20.103Z,8.77
2022-09-06T04:09:21.744Z,7.57
2022-09-06T04:10:24.337Z,8.03
2022-09-06T04:11:26.083Z,9.13
2022-09-06T04:12:28.851Z,8.40
2022-09-06T04:13:31.520Z,7.80
2022-09-06T04:14:34.066Z,11.67
2022-09-06T04:15:36.986Z,10.30
2022-09-06T04:16:39.713Z,12.23
2022-09-06T04:17:44.478Z,7.17
2022-09-06T04:18:47.091Z,15.23
2022-09-06T04:19:48.799Z,12.20
2022-09-06T04:20:55.848Z,13.30
2022-09-06T04:21:57.584Z,12.00
2022-09-06T04:23:00.188Z,7.80
2022-09-06T04:24:03.614Z,11.87
2022-09-06T04:25:06.238Z,9.90
2022-09-06T04:26:09.034Z,8.90
2022-09-06T04:27:10.824Z,11.47
2022-09-06T04:28:13.411Z,8.27
2022-09-06T04:29:16.005Z,9.30
2022-09-06T04:30:17.823Z,11.00
2022-09-06T04:31:20.911Z,18.43
2022-09-06T04:32:22.720Z,8.70
2022-09-06T04:33:26.673Z,10.13
2022-09-06T04:34:28.264Z,14.80
2022-09-06T04:35:30.860Z,9.00
2022-09-06T04:36:34.824Z,12.03
2022-09-06T04:37:36.440Z,15.07
2022-09-06T04:38:40.756Z,16.13
2022-09-06T04:39:42.391Z,10.93
2022-09-06T04:40:45.178Z,14.73
2022-09-06T04:41:46.861Z,12.13
2022-09-06T04:42:49.790Z,13.80
2022-09-06T04:43:52.349Z,12.73
2022-09-06T04:44:53.927Z,11.23
2022-09-06T04:45:56.607Z,9.87
2022-09-06T04:47:09.479Z,8.97
2022-09-06T04:48:12.890Z,13.93
2022-09-06T04:49:14.528Z,17.37
2022-09-06T04:50:17.147Z,13.50
2022-09-06T04:51:19.362Z,14.40
2022-09-06T04:52:26.010Z,16.47
2022-09-06T04:53:31.228Z,16.43
2022-09-06T04:54:33.768Z,11.30
2022-09-06T04:55:35.462Z,16.03
2022-09-06T04:56:38.043Z,14.07
2022-09-06T04:57:44.454Z,13.30
2022-09-06T04:58:50.310Z,11.73
2022-09-06T04:59:51.899Z,11.33
2022-09-06T05:00:54.849Z,15.10
2022-09-06T05:01:56.617Z,11.10
2022-09-06T05:02:59.989Z,16.30
2022-09-06T05:04:01.924Z,15.70
2022-09-06T05:05:04.953Z,15.77
2022-09-06T05:06:08.379Z,15.17
2022-09-06T05:07:11.106Z,19.70
2022-09-06T05:08:14.671Z,12.23
2022-09-06T05:09:17.310Z,12.33
2022-09-06T05:10:19.233Z,12.07
2022-09-06T05:11:21.981Z,16.63
2022-09-06T05:12:23.575Z,16.83
2022-09-06T05:13:26.539Z,14.43
2022-09-06T05:14:28.629Z,12.60
2022-09-06T05:15:31.594Z,13.93
2022-09-06T05:16:34.218Z,14.20
2022-09-06T05:17:36.133Z,16.93
2022-09-06T05:18:38.813Z,11.70
2022-09-06T05:19:40.569Z,13.30
2022-09-06T05:20:43.197Z,16.80
2022-09-06T05:21:44.882Z,11.33
2022-09-06T05:22:54.140Z,14.87
2022-09-06T05:23:58.782Z,13.37
2022-09-06T05:25:01.585Z,12.53
2022-09-06T05:26:03.621Z,13.93
2022-09-06T05:27:07.439Z,13.60
2022-09-06T05:28:09.107Z,18.17
2022-09-06T05:29:11.656Z,13.83
2022-09-06T05:30:14.454Z,18.50
2022-09-06T05:31:26.709Z,17.90
2022-09-06T05:32:28.339Z,23.20
2022-09-06T05:33:30.890Z,14.57
2022-09-06T05:34:32.826Z,15.70
2022-09-06T05:35:35.432Z,13.80
2022-09-06T05:36:38.638Z,20.70
2022-09-06T05:37:41.397Z,16.00
2022-09-06T05:38:43.019Z,16.63
2022-09-06T05:39:47.080Z,14.20
2022-09-06T05:40:48.688Z,18.07
2022-09-06T05:41:51.274Z,16.73
2022-09-06T05:42:52.979Z,16.50
2022-09-06T05:43:55.856Z,16.20
2022-09-06T05:44:57.468Z,16.43
2022-09-06T05:46:00.418Z,22.60
2022-09-06T05:47:02.360Z,15.90
2022-09-06T05:48:05.333Z,14.23
2022-09-06T05:49:08.084Z,20.13
2022-09-06T05:50:11.057Z,22.23
2022-09-06T05:51:13.567Z,17.33
2022-09-06T05:52:18.309Z,12.10
2022-09-06T05:53:20.081Z,16.13
2022-09-06T05:54:22.783Z,11.33
2022-09-06T05:55:26.185Z,13.67
2022-09-06T05:56:28.864Z,15.20
2022-09-06T05:57:30.514Z,12.67
2022-09-06T05:58:33.502Z,11.93
2022-09-06T05:59:35.318Z,14.10
2022-09-06T06:00:38.067Z,11.40
2022-09-06T06:01:47.857Z,14.50
2022-09-06T06:02:50.980Z,15.33
2022-09-06T06:03:54.658Z,9.17
2022-09-06T06:04:58.223Z,12.67
2022-09-06T06:05:59.943Z,13.60
2022-09-06T06:07:02.639Z,17.87
2022-09-06T06:08:04.352Z,12.07
2022-09-06T06:09:07.111Z,12.17
2022-09-06T06:10:09.785Z,14.53
2022-09-06T06:11:14.228Z,8.90
2022-09-06T06:12:16.920Z,10.10
2022-09-06T06:13:18.578Z,9.63
2022-09-06T06:14:21.154Z,12.17
2022-09-06T06:15:22.806Z,21.20
2022-09-06T06:16:25.718Z,8.17
2022-09-06T06:17:27.655Z,10.83
2022-09-06T06:18:30.571Z,16.33
2022-09-06T06:19:32.175Z,15.50
2022-09-06T06:20:34.824Z,13.33
2022-09-06T06:21:38.393Z,11.97
2022-09-06T06:22:40.989Z,13.00
2022-09-06T06:23:44.510Z,17.70
2022-09-06T06:24:47.395Z,10.53
2022-09-06T06:25:49.047Z,8.40
2022-09-06T06:26:52.974Z,12.87
2022-09-06T06:27:54.757Z,14.30
2022-09-06T06:28:58.861Z,9.40
2022-09-06T06:30:01.465Z,10.37
2022-09-06T06:31:03.272Z,17.83
2022-09-06T06:32:06.210Z,11.70
2022-09-06T06:33:08.004Z,12.77
2022-09-06T06:34:10.573Z,11.30
2022-09-06T06:35:12.545Z,9.60
2022-09-06T06:36:22.596Z,12.77
2022-09-06T06:37:24.245Z,9.93
2022-09-06T06:38:31.761Z,8.60
2022-09-06T06:39:34.461Z,12.90
2022-09-06T06:40:36.243Z,10.27
2022-09-06T06:41:39.029Z,8.70
2022-09-06T06:42:42.143Z,10.00
2022-09-06T06:43:45.071Z,13.73
2022-09-06T06:44:46.700Z,10.20
2022-09-06T06:45:50.398Z,12.77
2022-09-06T06:46:53.019Z,12.83
2022-09-06T06:47:54.753Z,9.27
2022-09-06T06:48:57.367Z,14.10
2022-09-06T06:49:59.974Z,10.07
2022-09-06T06:51:01.912Z,13.33
2022-09-06T06:52:04.705Z,13.67
2022-09-06T06:53:06.297Z,13.03
2022-09-06T06:54:08.968Z,9.87
2022-09-06T06:55:10.658Z,12.00
2022-09-06T06:56:18.332Z,9.10
2022-09-06T06:57:20.899Z,11.70
2022-09-06T06:58:23.955Z,16.10
2022-09-06T06:59:26.474Z,10.93
2022-09-06T07:00:28.502Z,14.43
2022-09-06T07:01:33.657Z,8.80
2022-09-06T07:02:35.489Z,11.23
2022-09-06T07:03:38.267Z,15.20
2022-09-06T07:04:40.832Z,10.43
2022-09-06T07:08:28.852Z,8.07
2022-09-06T07:10:53.291Z,9.10
2022-09-06T07:11:56.283Z,11.27
2022-09-06T07:12:58.049Z,11.77
2022-09-06T07:14:02.128Z,14.53
2022-09-06T07:15:04.491Z,7.10
2022-09-06T07:16:08.878Z,13.07
2022-09-06T07:17:11.627Z,16.90
2022-09-06T07:18:15.617Z,8.77
2022-09-06T07:22:05.218Z,13.43
2022-09-06T07:24:30.168Z,8.33
2022-09-06T07:25:32.429Z,10.23
2022-09-06T07:26:36.285Z,6.40
2022-09-06T07:28:47.966Z,7.50
2022-09-06T07:29:51.932Z,9.37
2022-09-06T07:30:55.225Z,9.93
2022-09-06T07:32:13.216Z,6.93
2022-09-06T07:33:15.897Z,7.43
2022-09-06T07:34:19.131Z,8.63
2022-09-06T07:35:20.881Z,6.63
2022-09-06T07:36:23.701Z,8.70
2022-09-06T07:37:25.331Z,8.03
2022-09-06T07:38:29.565Z,13.57
2022-09-06T07:39:33.071Z,8.90
2022-09-06T07:40:35.693Z,8.40
2022-09-06T07:41:37.444Z,8.00
2022-09-06T07:42:40.040Z,6.77
2022-09-06T07:43:42.752Z,9.23
2022-09-06T07:44:45.357Z,6.40
2022-09-06T07:45:49.451Z,10.33
2022-09-06T07:46:52.660Z,7.43
2022-09-06T07:48:59.107Z,11.10
2022-09-06T07:51:23.850Z,7.33
2022-09-06T07:53:57.902Z,11.63
2022-09-06T07:55:05.880Z,7.70
2022-09-06T07:56:10.327Z,7.07
2022-09-06T07:57:12.145Z,12.73
2022-09-06T07:58:15.200Z,5.80
2022-09-06T07:59:17.891Z,5.67
2022-09-06T08:00:19.666Z,7.37
2022-09-06T08:01:30.955Z,6.83
2022-09-06T08:02:32.795Z,7.00
2022-09-06T08:03:35.485Z,5.70
2022-09-06T08:04:38.062Z,4.60
2022-09-06T08:09:48.685Z,7.07
2022-09-06T08:10:50.832Z,8.17
2022-09-06T08:11:53.652Z,7.53
2022-09-06T08:12:55.347Z,4.43
2022-09-06T08:14:00.241Z,6.57
2022-09-06T08:15:02.553Z,4.93
2022-09-06T08:16:06.998Z,4.37
2022-09-06T08:17:11.046Z,5.03
2022-09-06T08:18:12.833Z,5.33
2022-09-06T08:19:15.491Z,7.33
2022-09-06T08:20:17.804Z,4.67
2022-09-06T08:21:23.459Z,8.83
2022-09-06T08:22:26.085Z,6.47
2022-09-06T08:23:29.152Z,12.30
2022-09-06T08:24:32.777Z,6.40
2022-09-06T08:25:34.395Z,8.00
2022-09-06T08:26:40.181Z,5.90
2022-09-06T08:27:42.940Z,5.57
2022-09-06T08:28:45.943Z,5.53
2022-09-06T08:29:48.705Z,10.67
2022-09-06T08:30:50.337Z,4.80
2022-09-06T08:31:53.079Z,5.10
2022-09-06T08:32:56.793Z,6.30
2022-09-06T08:34:00.781Z,6.03
2022-09-06T08:35:02.729Z,7.30
2022-09-06T08:36:06.240Z,7.80
2022-09-06T08:37:07.890Z,4.90
2022-09-06T08:38:10.469Z,5.80
2022-09-06T08:39:12.358Z,6.60
2022-09-06T08:40:20.768Z,6.40
2022-09-06T08:41:26.038Z,6.80
2022-09-06T08:42:28.800Z,6.23
2022-09-06T08:43:30.558Z,5.60
2022-09-06T08:46:00.395Z,9.87
2022-09-06T08:47:07.484Z,4.03
2022-09-06T08:48:11.889Z,4.70
2022-09-06T08:49:13.696Z,7.87
2022-09-06T08:50:16.493Z,8.80
2022-09-06T08:51:47.863Z,5.90
2022-09-06T08:53:16.886Z,6.03
2022-09-06T08:54:29.944Z,10.27
2022-09-06T08:55:37.397Z,4.67
2022-09-06T08:56:52.203Z,4.13
2022-09-06T08:58:06.068Z,5.63
2022-09-06T08:59:14.538Z,7.60
2022-09-06T09:00:17.297Z,4.87
2022-09-06T09:01:25.430Z,5.40
2022-09-06T09:02:29.576Z,5.40
2022-09-06T09:03:36.606Z,6.57
2022-09-06T09:04:44.370Z,5.43
2022-09-06T09:05:50.377Z,6.70
2022-09-06T09:06:57.104Z,7.80
2022-09-06T09:08:07.662Z,6.87
2022-09-06T09:09:14.929Z,5.07
2022-09-06T09:10:24.902Z,2.87
2022-09-06T09:11:28.734Z,5.00
2022-09-06T09:12:33.873Z,8.13
2022-09-06T09:13:41.805Z,5.87
2022-09-06T09:14:48.321Z,4.50
2022-09-06T09:15:50.987Z,3.27
2022-09-06T09:16:56.101Z,4.80
2022-09-06T09:17:58.716Z,5.40
2022-09-06T09:19:03.570Z,7.83
2022-09-06T09:20:08.314Z,3.23
2022-09-06T09:21:11.665Z,5.10
2022-09-06T09:22:17.601Z,3.60
2022-09-06T09:23:20.460Z,3.83
2022-09-06T09:24:24.264Z,2.77
2022-09-06T09:25:26.918Z,3.03
2022-09-06T09:26:33.822Z,3.57
2022-09-06T09:27:37.856Z,3.80
2022-09-06T09:28:40.615Z,3.23
2022-09-06T09:31:35.562Z,2.60
2022-09-06T09:32:40.020Z,3.63
2022-09-06T09:33:42.719Z,2.80
2022-09-06T09:34:45.902Z,4.60
2022-09-06T09:35:48.888Z,5.20
2022-09-06T09:38:42.713Z,4.10
2022-09-06T09:39:44.719Z,4.33
2022-09-06T09:40:52.091Z,3.53
2022-09-06T09:41:54.747Z,4.33
2022-09-06T09:43:08.931Z,3.90
2022-09-06T09:44:18.329Z,5.87
2022-09-06T09:45:25.179Z,5.77
2022-09-06T09:46:33.964Z,3.00
2022-09-06T09:47:35.654Z,2.97
2022-09-06T09:48:39.191Z,3.20
2022-09-06T09:49:40.875Z,5.47
2022-09-06T09:50:44.792Z,4.27
2022-09-06T09:52:04.940Z,4.70
2022-09-06T09:53:09.724Z,3.20
2022-09-06T09:54:14.646Z,3.83
2022-09-06T09:55:16.404Z,4.40
2022-09-06T09:56:30.816Z,5.30
2022-09-06T09:57:45.153Z,9.40
2022-09-06T09:58:46.853Z,4.90
2022-09-06T09:59:53.829Z,3.83
2022-09-06T10:01:11.053Z,3.87
2022-09-06T10:02:24.509Z,4.97
2022-09-06T10:03:29.598Z,4.87
2022-09-06T10:06:02.265Z,4.33
2022-09-06T10:07:12.244Z,7.53
2022-09-06T10:08:15.585Z,3.60
2022-09-06T10:09:21.242Z,4.03
2022-09-06T10:10:25.467Z,2.53
2022-09-06T10:11:39.360Z,2.20
2022-09-06T10:12:43.873Z,2.70
2022-09-06T10:13:46.581Z,3.23
2022-09-06T10:14:49.489Z,3.30
2022-09-06T10:15:54.025Z,3.60
2022-09-06T10:16:56.668Z,2.07
2022-09-06T10:17:59.686Z,5.40
2022-09-06T10:19:13.284Z,2.80
2022-09-06T10:20:16.796Z,3.73
2022-09-06T10:21:22.223Z,3.70
2022-09-06T10:22:29.476Z,4.50
2022-09-06T10:25:22.783Z,2.30
2022-09-06T10:26:33.353Z,3.90
2022-09-06T10:28:08.167Z,4.50
2022-09-06T10:29:10.634Z,3.47
2022-09-06T10:30:14.454Z,5.50
2022-09-06T10:31:37.369Z,4.07
2022-09-06T10:32:42.963Z,2.40
2022-09-06T10:33:59.235Z,5.50
2022-09-06T10:35:15.786Z,4.60
2022-09-06T10:36:24.076Z,5.87
2022-09-06T10:37:43.303Z,6.60
2022-09-06T10:38:54.821Z,3.70
2022-09-06T10:40:07.346Z,2.60
2022-09-06T10:41:29.447Z,2.30
2022-09-06T10:42:39.336Z,2.80
2022-09-06T10:43:50.594Z,2.77
2022-09-06T10:45:04.397Z,2.27
2022-09-06T10:46:15.022Z,4.13
2022-09-06T10:47:19.063Z,1.97
2022-09-06T10:48:28.518Z,1.87
2022-09-06T10:49:34.521Z,8.00
2022-09-06T10:50:42.752Z,4.70
2022-09-06T10:51:50.573Z,4.20
2022-09-06T10:52:54.125Z,4.70
2022-09-06T10:54:04.770Z,3.63
2022-09-06T10:55:13.918Z,4.33
2022-09-06T10:56:21.991Z,2.70
2022-09-06T11:00:21.745Z,8.13
2022-09-06T11:01:31.307Z,3.67
2022-09-06T11:02:42.918Z,2.53
2022-09-06T11:03:55.662Z,3.73
2022-09-06T11:06:34.931Z,6.60
2022-09-06T11:09:13.577Z,4.90
2022-09-06T11:10:22.865Z,3.03
2022-09-06T11:11:35.444Z,9.77
2022-09-06T11:12:43.430Z,3.40
2022-09-06T11:13:45.134Z,3.43
2022-09-06T11:14:48.487Z,13.83
2022-09-06T11:15:57.500Z,3.47
2022-09-06T11:17:06.645Z,3.70
2022-09-06T11:18:18.304Z,4.07
2022-09-06T11:19:27.029Z,2.70
2022-09-06T11:20:36.462Z,4.63
2022-09-06T11:22:30.924Z,5.90
2022-09-06T11:23:49.117Z,3.10
2022-09-06T11:25:17.105Z,2.23
2022-09-06T11:26:43.299Z,4.20
2022-09-06T11:27:47.844Z,9.37
2022-09-06T11:28:54.693Z,3.03
2022-09-06T11:29:58.869Z,4.93
2022-09-06T11:31:00.944Z,3.13
2022-09-06T11:32:25.173Z,6.77
2022-09-06T11:33:30.327Z,3.80
2022-09-06T11:34:33.976Z,3.03
2022-09-06T11:35:37.610Z,3.57
2022-09-06T11:36:46.914Z,3.60
2022-09-06T11:37:59.152Z,5.63
2022-09-06T11:39:04.649Z,6.13
2022-09-06T11:40:30.618Z,5.30
2022-09-06T11:41:36.542Z,6.63
2022-09-06T11:43:11.783Z,6.70
2022-09-06T11:44:54.452Z,4.80
2022-09-06T11:45:57.148Z,2.80
2022-09-06T11:47:02.039Z,3.57
2022-09-06T11:48:34.249Z,3.43
2022-09-06T11:49:41.249Z,4.97
2022-09-06T11:51:02.807Z,4.43
2022-09-06T11:52:57.731Z,3.73
2022-09-06T11:54:21.772Z,7.87
2022-09-06T11:55:31.760Z,4.90
2022-09-06T11:56:43.166Z,2.93
2022-09-06T11:57:48.049Z,4.20
2022-09-06T11:58:57.018Z,4.10
2022-09-06T12:00:04.138Z,5.40
2022-09-06T12:01:40.948Z,6.90
2022-09-06T12:02:44.795Z,4.90
2022-09-06T12:04:07.750Z,3.80
2022-09-06T12:05:16.686Z,7.03
2022-09-06T12:06:20.808Z,5.93
2022-09-06T12:07:22.477Z,4.20
2022-09-06T12:08:32.616Z,4.23
2022-09-06T12:09:38.663Z,3.63
2022-09-06T12:10:51.036Z,7.70
2022-09-06T12:11:53.708Z,6.90
2022-09-06T12:12:55.650Z,6.43
2022-09-06T12:14:03.720Z,4.50
2022-09-06T12:15:24.884Z,2.63
2022-09-06T12:17:09.558Z,18.57
2022-09-06T12:18:52.339Z,4.00
2022-09-06T12:20:09.449Z,5.03
2022-09-06T12:21:40.167Z,5.73
2022-09-06T12:22:54.696Z,3.80
2022-09-06T12:23:57.425Z,4.97
2022-09-06T12:25:00.321Z,4.23
2022-09-06T12:26:04.118Z,6.73
2022-09-06T12:27:11.397Z,6.90
2022-09-06T12:28:37.046Z,3.67
2022-09-06T12:29:38.897Z,4.73
2022-09-06T12:30:44.419Z,6.43
2022-09-06T12:31:53.275Z,3.53
2022-09-06T12:32:55.271Z,2.33
2022-09-06T12:33:59.870Z,5.73
2022-09-06T12:36:31.096Z,3.37
2022-09-06T12:37:37.180Z,13.30
2022-09-06T12:38:38.823Z,4.83
2022-09-06T12:39:57.329Z,3.67
2022-09-06T12:41:01.068Z,5.77
2022-09-06T12:42:06.530Z,6.50
2022-09-06T12:43:11.731Z,3.03
2022-09-06T12:44:16.650Z,4.10
2022-09-06T12:45:26.545Z,4.70
2022-09-06T12:46:32.301Z,3.40
2022-09-06T12:47:39.902Z,6.73
2022-09-06T12:48:44.342Z,6.33
2022-09-06T12:49:48.267Z,6.77
2022-09-06T12:51:01.893Z,5.03
2022-09-06T12:52:09.662Z,4.30
2022-09-06T12:53:24.793Z,3.00
2022-09-06T12:54:28.817Z,3.03
2022-09-06T12:55:33.053Z,5.87
2022-09-06T12:56:35.929Z,3.47
2022-09-06T12:57:46.911Z,4.00
2022-09-06T12:58:50.148Z,3.37
2022-09-06T12:59:53.844Z,6.70
2022-09-06T13:01:04.775Z,11.30
2022-09-06T13:02:14.708Z,3.73
2022-09-06T13:03:26.970Z,7.70
2022-09-06T13:04:33.975Z,6.87
2022-09-06T13:05:40.266Z,7.70
2022-09-06T13:06:45.651Z,2.37
2022-09-06T13:07:54.126Z,3.20
2022-09-06T13:08:58.631Z,4.90
2022-09-06T13:10:01.385Z,2.63
2022-09-06T13:11:05.850Z,3.00
2022-09-06T13:12:16.197Z,2.57
2022-09-06T13:13:22.658Z,3.73
2022-09-06T13:14:27.819Z,5.13
2022-09-06T13:15:31.937Z,5.63
2022-09-06T13:16:37.734Z,6.80
2022-09-06T13:17:40.809Z,8.10
2022-09-06T13:18:42.429Z,2.60
2022-09-06T13:19:45.154Z,4.80
2022-09-06T13:20:58.939Z,4.93
2022-09-06T13:22:03.696Z,3.30
2022-09-06T13:23:09.310Z,2.40
2022-09-06T13:24:23.225Z,7.70
2022-09-06T13:25:27.693Z,4.40
2022-09-06T13:26:34.623Z,7.10
2022-09-06T13:27:37.826Z,2.77
2022-09-06T13:28:40.926Z,3.00
2022-09-06T13:29:54.715Z,2.67
2022-09-06T13:31:05.609Z,2.00
2022-09-06T13:32:14.438Z,3.40
2022-09-06T13:33:25.479Z,2.57
2022-09-06T13:34:30.342Z,3.47
2022-09-06T13:35:34.564Z,4.83
2022-09-06T13:36:38.561Z,1.80
2022-09-06T13:37:41.079Z,7.43
2022-09-06T13:38:45.328Z,2.37
2022-09-06T13:39:47.171Z,3.00
2022-09-06T13:42:26.791Z,3.17
2022-09-06T13:43:33.292Z,6.30
2022-09-06T13:44:38.627Z,10.30
2022-09-06T13:45:40.708Z,2.00
2022-09-06T13:46:43.404Z,2.33
2022-09-06T13:47:45.009Z,4.37
2022-09-06T13:48:47.544Z,1.63
2022-09-06T13:49:51.567Z,2.30
2022-09-06T13:50:54.185Z,3.77
2022-09-06T13:52:01.203Z,3.43
2022-09-06T13:53:03.564Z,2.03
2022-09-06T13:54:07.622Z,1.90
2022-09-06T13:55:15.722Z,2.20
2022-09-06T13:56:17.683Z,8.33
2022-09-06T13:57:24.318Z,2.10
2022-09-06T13:58:26.541Z,5.60
2022-09-06T13:59:30.255Z,5.23
2022-09-06T14:00:31.853Z,5.37
2022-09-06T14:01:34.838Z,4.27
2022-09-06T14:02:38.226Z,1.40
2022-09-06T14:03:41.736Z,1.77
2022-09-06T14:04:44.399Z,2.17
2022-09-06T14:05:46.037Z,1.60
2022-09-06T14:06:49.557Z,2.13
2022-09-06T14:07:53.654Z,3.20
2022-09-06T14:09:06.865Z,2.13
2022-09-06T14:10:12.256Z,2.70
2022-09-06T14:11:13.997Z,6.70
2022-09-06T14:12:16.552Z,3.30
2022-09-06T14:13:19.431Z,4.80
2022-09-06T14:14:22.055Z,3.80
2022-09-06T14:15:23.878Z,2.43
2022-09-06T14:16:26.758Z,3.80
2022-09-06T14:17:28.422Z,3.80
2022-09-06T14:18:31.256Z,2.30
2022-09-06T14:19:33.922Z,4.30
2022-09-06T14:20:35.513Z,4.80
2022-09-06T14:21:38.559Z,2.53
2022-09-06T14:22:40.672Z,2.03
2022-09-06T14:23:50.801Z,1.87
2022-09-06T14:24:55.593Z,2.10
2022-09-06T14:25:58.106Z,4.10
2022-09-06T14:27:00.662Z,5.80
2022-09-06T14:28:02.837Z,2.60
2022-09-06T14:29:06.008Z,1.57
2022-09-06T14:30:09.001Z,4.40
2022-09-06T14:31:12.957Z,1.47
2022-09-06T14:32:19.250Z,2.50
2022-09-06T14:33:23.433Z,1.80
2022-09-06T14:34:27.056Z,2.10
2022-09-06T14:35:30.532Z,4.23
2022-09-06T14:36:33.798Z,2.37
2022-09-06T14:37:35.672Z,3.20
2022-09-06T14:38:39.070Z,7.00
2022-09-06T14:39:43.059Z,2.27
2022-09-06T14:40:44.715Z,3.53
2022-09-06T14:41:48.109Z,2.50
2022-09-06T14:42:50.642Z,3.63
2022-09-06T14:43:55.464Z,3.90
2022-09-06T14:44:57.063Z,4.27
2022-09-06T14:46:05.201Z,2.90
2022-09-06T14:47:06.843Z,2.23
2022-09-06T14:48:09.694Z,2.80
2022-09-06T14:49:11.305Z,1.83
2022-09-06T14:50:13.807Z,2.50
2022-09-06T14:51:19.036Z,1.90
2022-09-06T14:52:21.591Z,2.27
2022-09-06T14:53:39.338Z,4.43
2022-09-06T14:54:44.634Z,1.53
2022-09-06T14:55:46.275Z,2.90
2022-09-06T14:56:49.387Z,1.50
2022-09-06T14:57:51.028Z,1.80
2022-09-06T14:58:57.124Z,2.93
2022-09-06T14:59:59.076Z,1.70
2022-09-06T15:01:13.361Z,1.33
2022-09-06T15:02:15.064Z,1.60
2022-09-06T15:03:17.599Z,1.73